createdAt,value
2017-11-29T00:00:01.642Z,3.47
2017-11-29T00:02:29.992Z,2.78
2017-11-29T00:04:57.554Z,2.95
2017-11-29T00:07:25.112Z,2.78
2017-11-29T00:09:52.684Z,3.12
2017-11-29T00:12:21.010Z,2.65
2017-11-29T00:14:48.565Z,2.90
2017-11-29T00:17:16.150Z,2.65
2017-11-29T00:19:43.711Z,3.75
2017-11-29T00:22:11.260Z,3.50
2017-11-29T00:24:38.843Z,3.67
2017-11-29T00:27:06.474Z,3.50
2017-11-29T00:29:34.043Z,4.30
2017-11-29T00:32:02.381Z,3.17
2017-11-29T00:34:29.919Z,3.35
2017-11-29T00:36:57.490Z,3.35
2017-11-29T00:39:25.038Z,3.05
2017-11-29T00:41:52.601Z,2.80
2017-11-29T00:44:20.181Z,3.40
2017-11-29T00:46:47.750Z,3.28
2017-11-29T00:49:16.083Z,3.75
2017-11-29T00:51:43.650Z,3.25
2017-11-29T00:54:11.211Z,3.78
2017-11-29T00:56:38.782Z,3.50
2017-11-29T00:59:06.369Z,4.05
2017-11-29T01:01:34.699Z,3.62
2017-11-29T01:04:02.268Z,3.20
2017-11-29T01:06:29.803Z,2.85
2017-11-29T01:08:57.360Z,2.40
2017-11-29T01:11:25.816Z,2.45
2017-11-29T01:13:53.429Z,2.45
2017-11-29T01:16:21.085Z,4.10
2017-11-29T01:18:48.637Z,2.20
2017-11-29T01:21:16.201Z,2.40
2017-11-29T01:23:44.332Z,2.22
2017-11-29T01:26:11.881Z,2.25
2017-11-29T01:28:39.444Z,1.87
2017-11-29T01:31:06.984Z,2.30
2017-11-29T01:33:34.550Z,1.98
2017-11-29T01:36:02.109Z,2.40
2017-11-29T01:38:30.414Z,2.00
2017-11-29T01:40:57.978Z,2.00
2017-11-29T01:43:26.331Z,2.33
2017-11-29T01:45:53.886Z,2.30
2017-11-29T01:48:21.526Z,2.50
2017-11-29T01:50:50.031Z,2.92
2017-11-29T01:53:17.607Z,5.57
2017-11-29T01:55:45.947Z,3.08
2017-11-29T01:58:13.490Z,7.60
2017-11-29T02:00:49.103Z,3.80
2017-11-29T02:03:16.657Z,5.05
2017-11-29T02:05:44.259Z,2.40
2017-11-29T02:08:15.441Z,2.20
2017-11-29T02:10:43.006Z,1.75
2017-11-29T02:13:10.595Z,2.28
2017-11-29T02:15:38.189Z,1.90
2017-11-29T02:18:06.509Z,2.45
2017-11-29T02:20:34.875Z,1.62
2017-11-29T02:23:02.421Z,2.28
2017-11-29T02:25:29.990Z,1.75
2017-11-29T02:27:57.570Z,4.93
2017-11-29T02:30:25.685Z,2.42
2017-11-29T02:32:53.237Z,2.17
2017-11-29T02:35:20.835Z,1.90
2017-11-29T02:37:48.399Z,2.40
2017-11-29T02:40:27.904Z,2.15
2017-11-29T02:42:55.459Z,2.15
2017-11-29T02:45:23.051Z,1.70
2017-11-29T02:47:50.602Z,2.17
2017-11-29T02:50:18.176Z,2.35
2017-11-29T02:52:45.747Z,2.17
2017-11-29T02:55:13.462Z,3.00
2017-11-29T02:57:40.996Z,2.60
2017-11-29T03:00:09.310Z,2.58
2017-11-29T03:02:36.882Z,2.30
2017-11-29T03:05:04.423Z,4.20
2017-11-29T03:07:31.990Z,2.22
2017-11-29T03:09:59.532Z,2.55
2017-11-29T03:12:27.097Z,2.30
2017-11-29T03:14:54.639Z,2.30
2017-11-29T03:17:22.213Z,2.50
2017-11-29T03:19:49.775Z,2.58
2017-11-29T03:22:17.334Z,2.58
2017-11-29T03:24:44.902Z,3.25
2017-11-29T03:27:12.465Z,3.03
2017-11-29T03:29:40.014Z,2.62
2017-11-29T03:32:07.588Z,2.80
2017-11-29T03:34:35.130Z,5.65
2017-11-29T03:37:02.723Z,5.07
2017-11-29T03:39:30.286Z,4.70
2017-11-29T03:41:57.857Z,5.97
2017-11-29T03:44:25.434Z,7.87
2017-11-29T03:46:54.642Z,6.78
2017-11-29T03:49:22.964Z,6.50
2017-11-29T03:51:50.521Z,4.50
2017-11-29T03:54:18.080Z,7.05
2017-11-29T03:56:45.621Z,6.68
2017-11-29T03:59:13.321Z,9.35
2017-11-29T04:01:40.901Z,6.62
2017-11-29T04:04:08.459Z,8.45
2017-11-29T04:06:36.018Z,7.50
2017-11-29T04:09:03.586Z,7.25
2017-11-29T04:11:31.178Z,7.75
2017-11-29T04:13:59.503Z,7.82
2017-11-29T04:16:27.069Z,8.65
2017-11-29T04:18:54.651Z,10.27
2017-11-29T04:21:22.202Z,7.97
2017-11-29T04:23:49.765Z,12.37
2017-11-29T04:26:18.533Z,8.88
2017-11-29T04:28:46.102Z,8.27
2017-11-29T04:31:13.644Z,7.45
2017-11-29T04:33:42.218Z,6.60
2017-11-29T04:36:09.795Z,6.55
2017-11-29T04:38:37.370Z,6.70
2017-11-29T04:41:04.927Z,9.82
2017-11-29T04:43:32.531Z,6.40
2017-11-29T04:46:00.070Z,6.10
2017-11-29T04:48:28.276Z,6.22
2017-11-29T04:50:55.810Z,7.40
2017-11-29T04:53:23.372Z,6.60
2017-11-29T04:55:50.915Z,6.70
2017-11-29T04:58:19.242Z,6.30
2017-11-29T05:00:46.822Z,6.95
2017-11-29T05:03:15.143Z,18.75
2017-11-29T05:05:42.754Z,15.48
2017-11-29T05:08:11.073Z,7.12
2017-11-29T05:10:38.689Z,7.90
2017-11-29T05:13:07.039Z,6.30
2017-11-29T05:15:34.619Z,6.00
2017-11-29T05:18:02.182Z,6.10
2017-11-29T05:20:30.527Z,6.62
2017-11-29T05:22:58.073Z,6.72
2017-11-29T05:25:25.643Z,6.87
2017-11-29T05:27:53.962Z,7.43
2017-11-29T05:30:21.538Z,9.38
2017-11-29T05:32:49.130Z,7.72
2017-11-29T05:35:16.733Z,8.77
2017-11-29T05:37:44.302Z,7.20
2017-11-29T05:40:11.878Z,7.78
2017-11-29T05:42:39.450Z,8.20
2017-11-29T05:45:07.794Z,7.47
2017-11-29T05:47:35.381Z,10.70
2017-11-29T05:50:02.966Z,11.18
2017-11-29T05:52:30.542Z,8.35
2017-11-29T05:54:58.117Z,8.80
2017-11-29T05:57:26.464Z,8.50
2017-11-29T05:59:55.423Z,7.50
2017-11-29T06:02:23.015Z,7.32
2017-11-29T06:04:51.380Z,7.68
2017-11-29T06:07:18.944Z,9.50
2017-11-29T06:09:46.523Z,8.68
2017-11-29T06:12:14.861Z,9.00
2017-11-29T06:14:42.512Z,13.60
2017-11-29T06:17:10.074Z,11.77
2017-11-29T06:19:37.663Z,12.65
2017-11-29T06:22:06.010Z,13.98
2017-11-29T06:24:33.579Z,12.37
2017-11-29T06:27:01.940Z,10.82
2017-11-29T06:29:29.552Z,12.37
2017-11-29T06:31:57.995Z,12.70
2017-11-29T06:34:25.697Z,12.23
2017-11-29T06:36:53.247Z,12.88
2017-11-29T06:39:20.874Z,12.40
2017-11-29T06:41:48.699Z,15.98
2017-11-29T06:44:16.275Z,15.50
2017-11-29T06:46:44.626Z,11.12
2017-11-29T06:49:12.299Z,13.57
2017-11-29T06:51:40.630Z,15.50
2017-11-29T06:54:08.234Z,12.95
2017-11-29T06:56:35.843Z,10.15
2017-11-29T06:59:03.445Z,8.20
2017-11-29T07:01:31.567Z,6.90
2017-11-29T07:03:59.116Z,6.90
2017-11-29T07:06:27.464Z,7.97
2017-11-29T07:08:55.030Z,6.75
2017-11-29T07:11:23.390Z,6.55
2017-11-29T07:13:50.982Z,5.53
2017-11-29T07:16:18.558Z,5.65
2017-11-29T07:18:46.118Z,5.45
2017-11-29T07:21:13.662Z,5.93
2017-11-29T07:23:41.985Z,6.15
2017-11-29T07:26:10.114Z,6.70
2017-11-29T07:28:37.673Z,6.22
2017-11-29T07:31:05.200Z,6.10
2017-11-29T07:33:33.561Z,9.27
2017-11-29T07:36:01.892Z,6.40
2017-11-29T07:38:30.311Z,6.43
2017-11-29T07:40:57.875Z,6.80
2017-11-29T07:43:25.451Z,6.62
2017-11-29T07:45:53.004Z,6.50
2017-11-29T07:48:20.667Z,12.00
2017-11-29T07:50:48.241Z,8.73
2017-11-29T07:53:15.799Z,13.30
2017-11-29T07:55:43.371Z,18.02
2017-11-29T07:58:10.929Z,17.27
2017-11-29T08:00:38.487Z,20.00
2017-11-29T08:03:06.058Z,25.65
2017-11-29T08:05:33.628Z,19.17
2017-11-29T08:08:01.183Z,20.30
2017-11-29T08:10:28.773Z,20.40
2017-11-29T08:12:56.344Z,22.23
2017-11-29T08:15:23.962Z,21.52
2017-11-29T08:17:51.548Z,19.33
2017-11-29T08:20:19.119Z,19.92
2017-11-29T08:22:46.683Z,20.50
2017-11-29T08:25:14.306Z,20.20
2017-11-29T08:27:41.878Z,20.17
2017-11-29T08:30:09.455Z,27.62
2017-11-29T08:32:37.015Z,23.00
2017-11-29T08:35:04.582Z,22.95
2017-11-29T08:37:32.153Z,24.63
2017-11-29T08:40:00.493Z,26.50
2017-11-29T08:42:28.083Z,23.67
2017-11-29T08:44:55.641Z,23.65
2017-11-29T08:47:23.692Z,26.48
2017-11-29T08:49:51.264Z,24.63
2017-11-29T08:52:31.635Z,27.65
2017-11-29T08:54:59.219Z,28.27
2017-11-29T08:57:26.825Z,28.17
2017-11-29T08:59:54.423Z,20.33
2017-11-29T09:02:21.997Z,21.85
2017-11-29T09:04:49.647Z,20.08
2017-11-29T09:07:17.271Z,19.10
2017-11-29T09:09:45.606Z,23.12
2017-11-29T09:12:13.200Z,21.77
2017-11-29T09:14:41.564Z,21.30
2017-11-29T09:17:09.898Z,21.23
2017-11-29T09:19:38.015Z,19.00
2017-11-29T09:22:05.626Z,19.92
2017-11-29T09:24:33.174Z,22.45
2017-11-29T09:27:01.568Z,17.27
2017-11-29T09:29:29.967Z,15.88
2017-11-29T09:31:57.592Z,20.60
2017-11-29T09:34:25.188Z,14.43
2017-11-29T09:36:52.786Z,16.23
2017-11-29T09:39:20.399Z,14.63
2017-11-29T09:41:47.994Z,16.73
2017-11-29T09:44:15.626Z,15.50
2017-11-29T09:46:44.038Z,13.73
2017-11-29T09:49:11.620Z,14.35
2017-11-29T09:51:39.241Z,12.18
2017-11-29T09:54:06.795Z,13.60
2017-11-29T09:56:34.377Z,14.25
2017-11-29T09:59:03.665Z,16.52
2017-11-29T10:01:31.236Z,16.27
2017-11-29T10:03:58.925Z,16.83
2017-11-29T10:06:27.250Z,9.75
2017-11-29T10:08:54.838Z,13.18
2017-11-29T10:11:22.427Z,11.45
2017-11-29T10:13:51.194Z,11.35
2017-11-29T10:16:18.755Z,13.02
2017-11-29T10:18:46.313Z,11.20
2017-11-29T10:21:13.909Z,11.85
2017-11-29T10:23:42.255Z,14.43
2017-11-29T10:26:12.083Z,11.95
2017-11-29T10:31:32.552Z,12.00
2017-11-29T10:34:00.208Z,13.13
2017-11-29T10:36:27.818Z,10.90
2017-11-29T10:38:56.154Z,10.90
2017-11-29T10:41:23.764Z,10.38
2017-11-29T10:43:51.384Z,12.02
2017-11-29T10:46:18.984Z,16.40
2017-11-29T10:48:47.319Z,14.55
2017-11-29T10:51:14.986Z,17.02
2017-11-29T10:53:44.441Z,16.47
2017-11-29T10:56:12.035Z,12.35
2017-11-29T10:58:40.420Z,11.90
2017-11-29T11:01:08.003Z,9.93
2017-11-29T11:03:35.552Z,8.10
2017-11-29T11:06:03.689Z,7.85
2017-11-29T11:08:32.042Z,9.70
2017-11-29T11:11:00.467Z,9.85
2017-11-29T11:13:28.024Z,8.05
2017-11-29T11:15:55.592Z,9.20
2017-11-29T11:18:23.943Z,8.57
2017-11-29T11:20:51.502Z,9.98
2017-11-29T11:23:19.185Z,10.93
2017-11-29T11:25:46.802Z,20.37
2017-11-29T11:28:15.137Z,22.73
2017-11-29T11:30:42.727Z,11.70
2017-11-29T11:33:11.293Z,12.68
2017-11-29T11:35:39.794Z,11.30
2017-11-29T11:38:07.386Z,11.33
2017-11-29T11:40:34.950Z,9.60
2017-11-29T11:43:03.309Z,14.00
2017-11-29T11:45:31.648Z,11.45
2017-11-29T11:48:05.635Z,9.37
2017-11-29T11:50:33.449Z,16.58
2017-11-29T11:53:01.303Z,10.00
2017-11-29T11:55:29.103Z,14.20
2017-11-29T11:57:59.002Z,14.87
2017-11-29T12:00:26.569Z,28.30
2017-11-29T12:02:54.229Z,29.13
2017-11-29T12:05:23.542Z,19.13
2017-11-29T12:07:51.093Z,17.50
2017-11-29T12:10:19.777Z,23.60
2017-11-29T12:12:47.338Z,11.73
2017-11-29T12:15:14.920Z,16.02
2017-11-29T12:17:43.266Z,12.50
2017-11-29T12:20:10.864Z,13.97
2017-11-29T12:22:38.436Z,16.17
2017-11-29T12:25:05.995Z,26.53
2017-11-29T12:27:33.563Z,10.95
2017-11-29T12:30:01.164Z,30.70
2017-11-29T12:32:28.758Z,37.38
2017-11-29T12:34:57.105Z,20.90
2017-11-29T12:37:24.648Z,19.90
2017-11-29T12:39:52.243Z,13.20
2017-11-29T12:42:19.785Z,14.63
2017-11-29T12:44:47.359Z,11.50
2017-11-29T12:47:14.933Z,12.90
2017-11-29T12:49:55.008Z,14.75
2017-11-29T12:52:22.594Z,35.20
2017-11-29T12:54:50.176Z,17.50
2017-11-29T12:57:17.974Z,10.60
2017-11-29T12:59:45.552Z,27.50
2017-11-29T13:02:13.922Z,27.23
2017-11-29T13:04:42.233Z,13.82
2017-11-29T13:07:09.828Z,17.15
2017-11-29T13:09:39.107Z,14.25
2017-11-29T13:12:06.735Z,6.62
2017-11-29T13:14:34.286Z,20.05
2017-11-29T13:17:01.858Z,8.25
2017-11-29T13:19:29.438Z,11.95
2017-11-29T13:21:57.023Z,12.35
2017-11-29T13:24:24.607Z,16.10
2017-11-29T13:26:52.964Z,8.25
2017-11-29T13:29:20.553Z,3.90
2017-11-29T13:31:48.120Z,3.80
2017-11-29T13:34:15.738Z,4.20
2017-11-29T13:36:43.320Z,3.20
2017-11-29T13:39:10.883Z,7.07
2017-11-29T13:41:38.459Z,34.77
2017-11-29T13:44:06.821Z,9.38
2017-11-29T13:46:34.674Z,5.75
2017-11-29T13:49:03.037Z,8.53
2017-11-29T13:51:31.623Z,5.87
2017-11-29T13:53:59.211Z,8.20
2017-11-29T13:56:26.784Z,7.63
2017-11-29T13:58:55.153Z,7.37
2017-11-29T14:01:22.721Z,7.43
2017-11-29T14:03:51.040Z,6.72
2017-11-29T14:06:18.584Z,7.60
2017-11-29T14:08:46.127Z,12.37
2017-11-29T14:11:13.671Z,9.50
2017-11-29T14:13:41.242Z,6.90
2017-11-29T14:16:08.819Z,7.00
2017-11-29T14:18:36.389Z,6.90
2017-11-29T14:21:03.993Z,7.90
2017-11-29T14:23:32.313Z,7.53
2017-11-29T14:25:59.913Z,7.63
2017-11-29T14:28:27.509Z,10.73
2017-11-29T14:30:55.353Z,9.03
2017-11-29T14:33:22.918Z,8.07
2017-11-29T14:35:51.253Z,7.22
2017-11-29T14:38:19.615Z,7.30
2017-11-29T14:40:47.324Z,8.23
2017-11-29T14:43:15.792Z,10.17
2017-11-29T14:45:43.378Z,7.78
2017-11-29T14:48:12.105Z,8.07
2017-11-29T14:50:39.679Z,20.65
2017-11-29T14:53:07.271Z,23.48
2017-11-29T14:55:34.903Z,13.68
2017-11-29T14:58:02.497Z,24.48
2017-11-29T15:00:30.067Z,14.20
2017-11-29T15:02:57.642Z,19.55
2017-11-29T15:05:25.205Z,21.37
2017-11-29T15:07:52.810Z,14.20
2017-11-29T15:10:20.383Z,15.03
2017-11-29T15:12:47.969Z,13.35
2017-11-29T15:15:16.326Z,12.00
2017-11-29T15:17:44.665Z,20.40
2017-11-29T15:20:13.088Z,29.63
2017-11-29T15:22:40.664Z,13.73
2017-11-29T15:25:08.272Z,8.40
2017-11-29T15:27:35.865Z,9.60
2017-11-29T15:30:03.489Z,6.53
2017-11-29T15:32:31.113Z,7.78
2017-11-29T15:34:58.714Z,10.82
2017-11-29T15:37:26.277Z,9.57
2017-11-29T15:39:53.867Z,14.95
2017-11-29T15:42:21.426Z,12.10
2017-11-29T15:44:49.155Z,13.43
2017-11-29T15:47:16.815Z,13.30
2017-11-29T15:49:45.513Z,13.40
2017-11-29T15:52:13.106Z,14.45
2017-11-29T15:54:40.688Z,11.57
2017-11-29T15:57:10.233Z,13.20
2017-11-29T15:59:37.810Z,18.35
2017-11-29T16:02:05.450Z,12.10
2017-11-29T16:04:33.030Z,19.58
2017-11-29T16:07:01.383Z,11.35
2017-11-29T16:09:29.713Z,15.32
2017-11-29T16:11:57.290Z,21.70
2017-11-29T16:14:24.925Z,14.27
2017-11-29T16:16:52.502Z,12.37
2017-11-29T16:19:20.289Z,11.80
2017-11-29T16:21:47.889Z,16.48
2017-11-29T16:24:15.517Z,16.25
2017-11-29T16:26:43.164Z,18.12
2017-11-29T16:29:10.814Z,16.90
2017-11-29T16:31:38.469Z,17.95
2017-11-29T16:34:06.060Z,13.23
2017-11-29T16:36:33.680Z,18.52
2017-11-29T16:39:02.534Z,19.80
2017-11-29T16:41:30.968Z,15.55
2017-11-29T16:43:58.560Z,16.35
2017-11-29T16:46:26.269Z,21.75
2017-11-29T16:48:55.657Z,13.27
2017-11-29T16:51:23.283Z,13.95
2017-11-29T16:53:52.441Z,14.40
2017-11-29T16:56:20.737Z,15.43
2017-11-29T16:58:48.516Z,17.00
2017-11-29T17:01:16.181Z,16.05
2017-11-29T17:03:44.577Z,16.55
2017-11-29T17:06:12.159Z,19.58
2017-11-29T17:08:40.645Z,20.30
2017-11-29T17:11:08.254Z,22.23
2017-11-29T17:13:36.699Z,23.45
2017-11-29T17:16:04.884Z,23.27
2017-11-29T17:18:32.470Z,19.30
2017-11-29T17:21:00.904Z,16.62
2017-11-29T17:23:28.975Z,18.75
2017-11-29T17:25:57.684Z,14.98
2017-11-29T17:28:26.058Z,17.50
2017-11-29T17:30:53.763Z,16.33
2017-11-29T17:33:21.510Z,23.77
2017-11-29T17:35:49.110Z,17.62
2017-11-29T17:38:16.703Z,16.70
2017-11-29T17:40:44.334Z,21.77
2017-11-29T17:43:13.831Z,17.50
2017-11-29T17:45:42.777Z,18.67
2017-11-29T17:48:10.371Z,18.45
2017-11-29T17:50:38.710Z,15.05
2017-11-29T17:53:06.281Z,15.50
2017-11-29T17:55:33.854Z,17.45
2017-11-29T17:58:01.406Z,16.55
2017-11-29T18:00:28.994Z,17.85
2017-11-29T18:02:57.579Z,17.75
2017-11-29T18:05:27.116Z,15.85
2017-11-29T18:07:54.689Z,19.90
2017-11-29T18:10:22.252Z,16.37
2017-11-29T18:12:50.619Z,17.75
2017-11-29T18:15:19.559Z,19.15
2017-11-29T18:17:47.154Z,19.85
2017-11-29T18:20:14.729Z,18.87
2017-11-29T18:22:43.063Z,18.05
2017-11-29T18:25:10.642Z,17.90
2017-11-29T18:27:38.228Z,18.67
2017-11-29T18:30:06.601Z,18.73
2017-11-29T18:32:34.975Z,18.52
2017-11-29T18:35:02.572Z,21.85
2017-11-29T18:37:30.157Z,21.25
2017-11-29T18:39:58.537Z,23.87
2017-11-29T18:42:26.132Z,24.12
2017-11-29T18:44:53.856Z,23.10
2017-11-29T18:47:21.524Z,22.77
2017-11-29T18:49:49.085Z,27.45
2017-11-29T18:52:16.658Z,22.23
2017-11-29T18:54:44.219Z,20.45
2017-11-29T18:57:11.790Z,23.08
2017-11-29T18:59:39.357Z,22.37
2017-11-29T19:02:06.927Z,20.15
2017-11-29T19:04:34.494Z,27.77
2017-11-29T19:07:02.089Z,44.97
2017-11-29T19:09:29.648Z,35.70
2017-11-29T19:11:57.281Z,34.95
2017-11-29T19:14:24.903Z,33.20
2017-11-29T19:16:52.727Z,31.17
2017-11-29T19:19:21.528Z,31.52
2017-11-29T19:21:49.488Z,29.15
2017-11-29T19:24:18.333Z,29.23
2017-11-29T19:26:46.282Z,27.83
2017-11-29T19:29:14.269Z,28.67
2017-11-29T19:31:42.147Z,33.97
2017-11-29T19:34:10.899Z,30.65
2017-11-29T19:36:39.371Z,30.58
2017-11-29T19:39:07.350Z,30.85
2017-11-29T19:41:35.215Z,33.50
2017-11-29T19:44:03.107Z,33.95
2017-11-29T19:46:30.985Z,32.88
2017-11-29T19:48:59.046Z,32.03
2017-11-29T19:51:26.989Z,27.05
2017-11-29T19:53:55.647Z,29.92
2017-11-29T19:56:23.526Z,30.58
2017-11-29T19:58:51.467Z,31.35
2017-11-29T20:01:19.321Z,29.02
2017-11-29T20:03:48.056Z,25.12
2017-11-29T20:06:15.955Z,22.27
2017-11-29T20:08:43.860Z,33.80
2017-11-29T20:11:12.519Z,26.85
2017-11-29T20:13:40.428Z,28.62
2017-11-29T20:16:08.321Z,29.10
2017-11-29T20:18:36.230Z,27.75
2017-11-29T20:21:04.849Z,29.27
2017-11-29T20:23:33.567Z,32.67
2017-11-29T20:26:01.454Z,34.25
2017-11-29T20:28:30.117Z,28.00
2017-11-29T20:31:01.314Z,30.98
2017-11-29T20:33:29.142Z,28.75
2017-11-29T20:35:56.809Z,28.80
2017-11-29T20:38:24.401Z,33.95
2017-11-29T20:40:53.053Z,30.73
2017-11-29T20:43:23.820Z,30.65
2017-11-29T20:45:55.209Z,28.80
2017-11-29T20:48:23.787Z,26.92
2017-11-29T20:50:51.470Z,27.27
2017-11-29T20:53:19.535Z,28.48
2017-11-29T20:55:48.271Z,28.95
2017-11-29T20:58:15.895Z,26.67
2017-11-29T21:00:43.982Z,31.20
2017-11-29T21:03:13.000Z,27.08
2017-11-29T21:05:41.711Z,32.75
2017-11-29T21:08:09.952Z,27.67
2017-11-29T21:10:37.735Z,27.42
2017-11-29T21:13:05.614Z,30.23
2017-11-29T21:15:33.335Z,33.67
2017-11-29T21:18:00.922Z,32.65
2017-11-29T21:20:28.483Z,34.28
2017-11-29T21:22:56.080Z,35.28
2017-11-29T21:25:23.651Z,33.17
2017-11-29T21:27:52.145Z,38.05
2017-11-29T21:30:19.701Z,36.13
2017-11-29T21:32:48.426Z,38.45
2017-11-29T21:35:15.995Z,40.83
2017-11-29T21:37:43.591Z,37.63
2017-11-29T21:40:12.117Z,37.58
2017-11-29T21:42:39.705Z,35.58
2017-11-29T21:45:07.301Z,37.90
2017-11-29T21:47:34.867Z,37.90
2017-11-29T21:50:03.214Z,37.97
2017-11-29T21:52:31.549Z,34.10
2017-11-29T21:54:59.137Z,34.72
2017-11-29T21:57:27.473Z,34.63
2017-11-29T21:59:55.058Z,35.58
2017-11-29T22:02:22.630Z,37.63
2017-11-29T22:04:50.197Z,37.70
2017-11-29T22:07:17.763Z,38.97
2017-11-29T22:09:46.134Z,33.42
2017-11-29T22:12:14.476Z,36.05
2017-11-29T22:14:42.053Z,34.10
2017-11-29T22:17:09.647Z,34.40
2017-11-29T22:19:37.239Z,35.78
2017-11-29T22:22:04.817Z,36.42
2017-11-29T22:24:32.428Z,32.92
2017-11-29T22:27:00.031Z,33.83
2017-11-29T22:29:27.605Z,34.50
2017-11-29T22:31:55.970Z,37.58
2017-11-29T22:34:23.556Z,35.00
2017-11-29T22:36:51.131Z,35.60
2017-11-29T22:39:18.704Z,58.87
2017-11-29T22:41:47.921Z,34.13
2017-11-29T22:44:15.599Z,37.88
2017-11-29T22:46:43.187Z,34.63
2017-11-29T22:49:10.788Z,34.10
2017-11-29T22:51:38.389Z,34.55
2017-11-29T22:54:05.944Z,38.90
2017-11-29T22:56:33.513Z,29.42
2017-11-29T22:59:01.083Z,34.85
2017-11-29T23:01:29.438Z,31.33
2017-11-29T23:03:57.009Z,35.90
2017-11-29T23:06:25.335Z,35.75
2017-11-29T23:08:52.896Z,44.40
2017-11-29T23:11:20.453Z,33.15
2017-11-29T23:13:48.774Z,33.47
2017-11-29T23:16:16.340Z,33.78
2017-11-29T23:18:44.690Z,30.35
2017-11-29T23:21:12.241Z,32.63
2017-11-29T23:23:39.840Z,36.22
2017-11-29T23:26:07.402Z,32.30
2017-11-29T23:28:34.969Z,52.65
2017-11-29T23:31:02.555Z,28.77
2017-11-29T23:33:30.171Z,30.50
2017-11-29T23:35:58.530Z,34.33
2017-11-29T23:38:26.114Z,33.10
2017-11-29T23:40:54.434Z,30.62
2017-11-29T23:43:22.002Z,27.77
2017-11-29T23:45:50.342Z,33.80
2017-11-29T23:48:17.891Z,34.97
2017-11-29T23:50:45.469Z,31.77
2017-11-29T23:53:13.053Z,34.03
2017-11-29T23:55:40.613Z,32.17
2017-11-29T23:58:08.181Z,33.08
